Time;durP1;ratioP1;P1;durP2;ratioP2;P2;SDS_P1;SDS_P2;PMS_P1;PMS_P2;Temp;Humidity;BMP_temperature;BMP_pressure;BME280_temperature;BME280_humidity;BME280_pressure;Samples;Min_cycle;Max_cycle;Signal;HPM_P1;HPM_P2
2022/08/12 00:42:55;;;;;;;9.25;8.13;;;18.90;99.90;;;;;;4917224;29;20822;-71
2022/08/12 00:45:20;;;;;;;8.83;8.03;;;18.80;99.90;;;;;;4910324;29;20044;-71
2022/08/12 00:47:47;;;;;;;10.65;8.27;;;18.80;99.90;;;;;;4910627;29;20409;-72
2022/08/12 00:50:18;;;;;;;15.95;8.80;;;18.80;99.90;;;;;;4914477;29;20051;-71
2022/08/12 00:52:46;;;;;;;10.05;8.80;;;18.80;99.90;;;;;;4911111;29;20198;-71
2022/08/12 00:55:12;;;;;;;;;;;18.70;99.90;;;;;;4911020;29;20079;-71
2022/08/12 00:57:43;;;;;;;16.02;8.73;;;18.70;99.90;;;;;;4911104;29;20473;-71
2022/08/12 01:00:24;;;;;;;9.10;8.18;;;18.60;99.90;;;;;;4899194;29;20087;-71
2022/08/12 01:02:52;;;;;;;11.20;9.38;;;18.60;99.90;;;;;;4910498;29;20398;-71
2022/08/12 01:13:46;;;;;;;9.77;8.77;;;18.40;99.90;;;;;;4914012;29;20155;-71
2022/08/12 01:16:19;;;;;;;10.00;9.07;;;18.30;99.90;;;;;;4914511;29;20048;-71
2022/08/12 01:18:44;;;;;;;16.13;9.77;;;18.30;99.90;;;;;;4915082;29;20490;-71
2022/08/12 01:21:39;;;;;;;13.25;9.38;;;18.20;99.90;;;;;;4915424;29;20123;-71
2022/08/12 01:24:26;;;;;;;10.95;9.80;;;18.20;99.90;;;;;;4899607;29;20044;-71
2022/08/12 01:26:55;;;;;;;11.30;10.15;;;18.20;99.90;;;;;;4922854;29;20183;-71
2022/08/12 01:29:26;;;;;;;13.75;10.65;;;18.20;99.90;;;;;;4918494;29;20106;-71
2022/08/12 01:31:56;;;;;;;11.13;9.65;;;18.10;99.90;;;;;;4933583;29;20080;-71
2022/08/12 01:34:30;;;;;;;11.07;9.95;;;18.10;99.90;;;;;;4903761;29;20067;-71
2022/08/12 01:36:59;;;;;;;12.82;10.35;;;18.10;99.90;;;;;;4937405;29;20111;-71
2022/08/12 01:39:36;;;;;;;16.25;11.13;;;18.00;99.90;;;;;;4918743;29;20234;-71
2022/08/12 01:42:06;;;;;;;19.30;10.80;;;18.00;99.90;;;;;;4933247;29;20062;-71
2022/08/12 01:44:33;;;;;;;22.30;11.23;;;17.90;99.90;;;;;;4925605;29;20115;-71
2022/08/12 01:47:09;;;;;;;14.88;12.00;;;17.90;99.90;;;;;;4916035;29;20087;-71
2022/08/12 01:50:06;;;;;;;12.65;10.32;;;17.80;99.90;;;;;;4921260;29;20047;-71
2022/08/12 01:53:09;;;;;;;14.45;11.32;;;17.80;99.90;;;;;;4932714;29;20572;-71
2022/08/12 01:55:38;;;;;;;12.02;10.50;;;17.70;99.90;;;;;;4926366;29;20519;-71
2022/08/12 01:59:45;;;;;;;12.00;10.70;;;17.70;99.90;;;;;;4932429;29;20078;-71
2022/08/12 02:01:23;;;;;;;13.65;10.55;;;17.70;99.90;;;;;;4916051;29;20070;-70
2022/08/12 02:14:18;;;;;;;13.18;11.00;;;17.50;99.90;;;;;;4922679;29;20066;-71
2022/08/12 02:17:21;;;;;;;13.70;11.73;;;17.50;99.90;;;;;;4933259;29;20086;-71
2022/08/12 02:19:58;;;;;;;18.65;12.18;;;17.40;99.90;;;;;;4915212;29;20062;-70
2022/08/12 02:22:37;;;;;;;18.23;13.00;;;17.40;99.90;;;;;;4930837;29;20062;-70
2022/08/12 02:25:07;;;;;;;13.98;12.23;;;17.40;99.90;;;;;;4931232;29;20396;-70
2022/08/12 02:27:38;;;;;;;14.40;13.00;;;17.30;99.90;;;;;;4932854;29;20047;-70
2022/08/12 02:30:08;;;;;;;13.25;12.00;;;17.30;99.90;;;;;;4932174;29;20063;-70
2022/08/12 02:32:38;;;;;;;14.05;12.63;;;17.30;99.90;;;;;;4915302;29;20051;-70
2022/08/12 02:35:09;;;;;;;24.80;13.43;;;17.30;99.90;;;;;;4934670;29;20051;-70
2022/08/12 02:37:37;;;;;;;14.20;12.70;;;17.20;99.90;;;;;;4937088;29;20044;-70
2022/08/12 02:40:06;;;;;;;18.35;14.10;;;17.20;99.90;;;;;;4928003;29;20043;-70
2022/08/12 02:42:34;;;;;;;14.98;13.48;;;17.20;99.90;;;;;;4924787;29;20047;-70
2022/08/12 02:45:07;;;;;;;17.67;12.93;;;17.20;99.90;;;;;;4915038;29;20485;-70
2022/08/12 02:47:40;;;;;;;15.45;13.43;;;17.10;99.90;;;;;;4931080;29;20044;-70
2022/08/12 02:50:08;;;;;;;14.90;13.40;;;17.10;99.90;;;;;;4914754;29;20076;-70
2022/08/12 02:52:35;;;;;;;14.40;12.90;;;17.10;99.90;;;;;;4935016;29;20059;-70
2022/08/12 02:55:14;;;;;;;13.68;12.38;;;17.00;99.90;;;;;;4931641;29;20055;-70
2022/08/12 02:57:43;;;;;;;13.93;12.52;;;17.10;99.90;;;;;;4932332;29;20409;-70
2022/08/12 03:00:10;;;;;;;13.95;12.63;;;17.00;99.90;;;;;;4923064;29;20064;-70
2022/08/12 03:02:38;;;;;;;16.53;14.87;;;17.00;99.90;;;;;;4932347;29;20123;-70
2022/08/12 03:05:04;;;;;;;32.58;13.40;;;17.00;99.90;;;;;;4930057;29;20056;-70
2022/08/12 03:07:41;;;;;;;17.98;13.75;;;17.00;99.90;;;;;;4931774;29;20070;-70
2022/08/12 03:10:09;;;;;;;14.93;13.43;;;17.00;99.90;;;;;;4913695;29;20051;-70
2022/08/12 03:12:37;;;;;;;16.83;14.18;;;17.00;99.90;;;;;;4931779;29;20043;-70
2022/08/12 03:15:23;;;;;;;15.98;14.38;;;16.90;99.90;;;;;;4930224;29;20090;-72
2022/08/12 03:18:13;;;;;;;15.25;13.48;;;16.90;99.90;;;;;;4914422;29;20047;-72
2022/08/12 03:20:39;;;;;;;19.42;14.00;;;16.90;99.90;;;;;;4907801;29;20044;-73
2022/08/12 03:23:13;;;;;;;13.73;12.43;;;16.90;99.90;;;;;;4914372;29;20092;-72
2022/08/12 03:25:42;;;;;;;16.27;12.15;;;16.90;99.90;;;;;;4926675;29;20055;-72
2022/08/12 03:28:48;;;;;;;14.50;13.00;;;16.90;99.90;;;;;;4910862;29;20048;-73
2022/08/12 03:31:02;;;;;;;14.10;12.70;;;16.90;99.90;;;;;;4893045;29;20056;-73
2022/08/12 03:33:33;;;;;;;13.52;12.13;;;16.90;99.90;;;;;;4892955;29;20482;-73
2022/08/12 03:36:02;;;;;;;16.40;13.18;;;16.90;99.90;;;;;;4892859;29;20052;-73
2022/08/12 03:38:31;;;;;;;15.98;12.07;;;16.90;99.90;;;;;;4889687;29;20160;-73
2022/08/12 04:00:45;;;;;;;16.52;14.93;;;16.60;99.90;;;;;;4891829;29;20060;-73
2022/08/12 04:05:55;;;;;;;22.90;15.85;;;16.60;99.90;;;;;;4889674;29;20054;-73
2022/08/12 04:08:24;;;;;;;16.75;15.20;;;16.60;99.90;;;;;;4890649;29;20048;-73
2022/08/12 04:13:35;;;;;;;17.65;15.75;;;16.50;99.90;;;;;;4888409;29;20051;-73
2022/08/12 04:16:03;;;;;;;21.67;17.60;;;16.50;99.90;;;;;;4893666;29;20044;-73
2022/08/12 04:18:30;;;;;;;17.10;15.30;;;16.50;99.90;;;;;;4892276;29;20502;-73
2022/08/12 04:20:56;;;;;;;21.48;16.75;;;16.50;99.90;;;;;;4892626;29;20056;-72
2022/08/12 04:23:24;;;;;;;25.88;17.23;;;16.50;99.90;;;;;;4893361;29;20459;-73
2022/08/12 04:25:50;;;;;;;18.13;15.65;;;16.60;99.90;;;;;;4896951;29;20052;-73
2022/08/12 04:28:26;;;;;;;20.20;15.90;;;16.60;99.90;;;;;;4892091;29;20052;-74
2022/08/12 04:30:52;;;;;;;17.85;15.98;;;16.70;99.90;;;;;;4893170;29;20087;-74
2022/08/12 04:33:18;;;;;;;24.45;16.42;;;16.70;99.90;;;;;;4898342;29;20116;-74
2022/08/12 04:35:45;;;;;;;17.30;15.55;;;16.90;99.90;;;;;;4894145;29;20906;-73
2022/08/12 04:38:12;;;;;;;20.10;16.27;;;17.00;99.90;;;;;;4893055;29;20433;-74
2022/08/12 04:40:38;;;;;;;16.52;14.93;;;17.10;99.90;;;;;;4893490;29;20131;-74
2022/08/12 04:43:04;;;;;;;19.35;15.65;;;17.10;99.90;;;;;;4893529;29;20864;-74
2022/08/12 04:45:31;;;;;;;18.02;16.02;;;17.10;99.90;;;;;;4895167;29;20104;-76
2022/08/12 04:47:58;;;;;;;44.40;18.25;;;17.10;99.90;;;;;;4896602;29;20100;-73
2022/08/12 04:50:24;;;;;;;17.85;15.82;;;17.00;99.90;;;;;;4897164;29;20052;-73
2022/08/12 04:52:51;;;;;;;18.38;15.23;;;17.00;99.90;;;;;;4896601;29;20137;-73
2022/08/12 04:55:17;;;;;;;17.98;16.05;;;17.00;99.90;;;;;;4895622;29;20119;-73
2022/08/12 04:57:43;;;;;;;20.48;15.85;;;17.00;99.90;;;;;;4896183;29;20136;-73
2022/08/12 05:00:13;;;;;;;17.02;14.65;;;17.10;99.90;;;;;;4896349;29;20060;-73
2022/08/12 05:02:39;;;;;;;18.15;16.25;;;17.00;99.90;;;;;;4896069;29;20052;-73
2022/08/12 05:05:07;;;;;;;21.88;14.27;;;17.10;99.90;;;;;;4897132;29;20421;-73
2022/08/12 05:07:34;;;;;;;18.60;14.48;;;17.20;99.90;;;;;;4895643;29;20056;-74
2022/08/12 05:10:01;;;;;;;17.02;15.30;;;17.30;99.90;;;;;;4892300;29;20059;-73
2022/08/12 05:12:35;;;;;;;17.58;15.15;;;17.30;99.90;;;;;;4895769;29;20104;-74
2022/08/12 05:15:02;;;;;;;16.33;14.68;;;17.40;99.90;;;;;;4895967;29;20132;-74
2022/08/12 05:17:28;;;;;;;18.60;14.80;;;17.50;99.90;;;;;;4898045;29;20059;-74
2022/08/12 05:19:54;;;;;;;17.48;15.60;;;17.50;99.90;;;;;;4910410;29;20402;-74
2022/08/12 05:22:20;;;;;;;15.63;13.85;;;17.60;99.90;;;;;;4895837;29;20052;-74
2022/08/12 05:24:46;;;;;;;18.70;15.07;;;17.70;99.90;;;;;;4891703;29;20056;-74
2022/08/12 05:27:12;;;;;;;15.25;13.75;;;17.70;99.90;;;;;;4876958;29;20059;-74
2022/08/12 05:29:39;;;;;;;19.65;15.98;;;17.80;99.90;;;;;;4914144;29;20051;-74
2022/08/12 05:32:06;;;;;;;19.15;15.52;;;17.90;99.90;;;;;;4930452;29;20055;-74
2022/08/12 05:34:33;;;;;;;15.52;13.93;;;17.90;99.90;;;;;;4915735;29;20052;-75
2022/08/12 05:37:00;;;;;;;15.05;13.13;;;18.00;99.90;;;;;;4936532;29;20047;-74
2022/08/12 05:39:26;;;;;;;15.48;13.82;;;18.10;99.90;;;;;;4931447;29;20067;-75
2022/08/12 05:41:52;;;;;;;15.57;13.50;;;18.10;99.90;;;;;;4932521;29;20103;-75
2022/08/12 05:44:18;;;;;;;18.13;14.40;;;18.20;99.90;;;;;;4920591;29;20055;-75
2022/08/12 05:46:44;;;;;;;15.35;13.70;;;18.20;99.90;;;;;;4933252;29;20051;-75
2022/08/12 05:49:10;;;;;;;14.85;13.40;;;18.20;99.90;;;;;;4931825;29;20066;-74
2022/08/12 05:51:37;;;;;;;18.02;14.60;;;18.20;99.90;;;;;;4929555;29;20044;-74
2022/08/12 05:54:03;;;;;;;14.52;12.93;;;18.20;99.90;;;;;;4938638;29;20055;-73
2022/08/12 05:56:33;;;;;;;14.80;13.40;;;18.20;99.90;;;;;;4921063;29;20058;-73
2022/08/12 05:59:01;;;;;;;13.80;12.48;;;18.30;99.90;;;;;;4915538;29;20044;-73
2022/08/12 06:01:28;;;;;;;13.98;12.57;;;18.30;99.90;;;;;;4932922;29;20036;-73
2022/08/12 06:03:59;;;;;;;19.08;13.48;;;18.30;99.90;;;;;;4933707;29;20504;-74
2022/08/12 06:06:25;;;;;;;14.27;12.93;;;18.30;99.90;;;;;;4932325;29;20083;-73
2022/08/12 06:08:52;;;;;;;13.57;12.15;;;18.40;99.90;;;;;;4915879;29;20051;-74
2022/08/12 06:11:22;;;;;;;13.45;12.07;;;18.40;99.90;;;;;;4938165;29;20089;-73
2022/08/12 06:13:50;;;;;;;13.18;11.88;;;18.40;99.90;;;;;;4915253;29;20131;-74
2022/08/12 06:16:18;;;;;;;13.57;12.15;;;18.40;99.90;;;;;;4917680;29;20510;-74
2022/08/12 06:18:44;;;;;;;15.60;12.93;;;18.40;99.90;;;;;;4932519;29;20744;-74
2022/08/12 06:21:12;;;;;;;15.95;13.93;;;18.40;99.90;;;;;;4931186;29;20052;-74
2022/08/12 06:23:39;;;;;;;17.23;13.25;;;18.40;99.90;;;;;;4931776;29;20047;-73
2022/08/12 06:26:10;;;;;;;17.17;12.73;;;18.40;99.90;;;;;;4915180;29;20076;-74
2022/08/12 06:28:37;;;;;;;13.07;11.90;;;18.50;99.90;;;;;;4929978;29;20052;-73
2022/08/12 06:31:03;;;;;;;12.38;11.25;;;18.40;99.90;;;;;;4912918;29;20048;-73
2022/08/12 06:33:29;;;;;;;13.05;11.45;;;18.50;99.90;;;;;;4931965;29;20044;-73
2022/08/12 06:35:56;;;;;;;19.00;12.32;;;18.60;99.90;;;;;;4915878;29;20130;-74
2022/08/12 06:38:26;;;;;;;12.60;11.18;;;18.60;99.90;;;;;;4917598;29;20059;-74
2022/08/12 06:43:39;;;;;;;15.15;11.02;;;18.70;99.90;;;;;;4904989;29;20061;-74
2022/08/12 06:46:05;;;;;;;14.00;12.38;;;18.80;99.90;;;;;;4907621;29;20091;-74
2022/08/12 06:48:32;;;;;;;12.13;11.02;;;18.90;99.90;;;;;;4907794;29;20636;-73
2022/08/12 06:50:58;;;;;;;13.75;12.23;;;19.00;99.90;;;;;;4908840;29;20147;-73
2022/08/12 06:53:25;;;;;;;12.57;11.38;;;19.10;99.90;;;;;;4904106;29;20048;-74
2022/08/12 06:55:53;;;;;;;17.13;11.30;;;19.30;99.90;;;;;;4923166;29;20170;-74
2022/08/12 06:58:20;;;;;;;11.27;10.18;;;19.40;99.90;;;;;;4923850;29;20566;-74
2022/08/12 07:00:46;;;;;;;17.33;9.25;;;19.70;99.90;;;;;;4905440;29;20134;-73
2022/08/12 07:03:20;;;;;;;10.68;9.70;;;20.00;99.90;;;;;;4906006;29;20242;-75
2022/08/12 07:05:46;;;;;;;12.60;9.48;;;20.30;99.90;;;;;;4918772;29;20070;-73
2022/08/12 07:08:15;;;;;;;10.48;9.07;;;20.70;99.90;;;;;;4905147;29;20509;-73
2022/08/12 07:10:52;;;;;;;11.32;9.55;;;21.00;99.90;;;;;;4907840;29;20175;-73
2022/08/12 07:13:19;;;;;;;8.70;7.80;;;21.40;99.90;;;;;;4906564;29;20698;-73
2022/08/12 07:15:45;;;;;;;12.73;9.20;;;21.70;99.90;;;;;;4905750;29;20055;-73
2022/08/12 07:18:16;;;;;;;13.60;9.57;;;22.00;99.90;;;;;;4910195;29;20056;-73
2022/08/12 07:20:44;;;;;;;10.27;7.82;;;22.20;99.90;;;;;;4914179;29;20048;-73
2022/08/12 07:23:10;;;;;;;20.45;9.25;;;22.50;99.90;;;;;;4910605;29;20056;-73
2022/08/12 07:25:38;;;;;;;9.73;8.82;;;22.70;99.90;;;;;;4929668;29;20050;-72
2022/08/12 07:28:19;;;;;;;10.07;8.65;;;22.80;99.90;;;;;;4931714;29;20051;-70
2022/08/12 07:30:47;;;;;;;10.93;9.05;;;23.10;99.90;;;;;;4914323;29;20501;-72
2022/08/12 07:33:15;;;;;;;13.95;8.38;;;23.40;99.90;;;;;;4936859;29;20586;-73
2022/08/12 07:35:44;;;;;;;;;;;23.50;99.90;;;;;;4945815;29;20496;-73
2022/08/12 07:38:32;;;;;;;11.68;9.45;;;23.60;99.90;;;;;;4930189;29;20392;-73
2022/08/12 07:41:20;;;;;;;9.05;8.15;;;23.90;99.90;;;;;;4911869;29;20056;-72
2022/08/12 07:43:50;;;;;;;9.43;8.52;;;24.10;99.90;;;;;;4921434;29;20055;-73
2022/08/12 07:46:19;;;;;;;9.18;8.23;;;24.20;99.90;;;;;;4931446;29;20051;-72
2022/08/12 07:48:51;;;;;;;11.80;8.30;;;24.40;99.90;;;;;;4914785;29;20048;-73
2022/08/12 07:51:19;;;;;;;8.43;7.43;;;24.50;99.90;;;;;;4913668;29;20051;-73
2022/08/12 07:53:45;;;;;;;;;;;24.80;99.90;;;;;;4913990;29;20460;-73
2022/08/12 07:56:11;;;;;;;10.77;7.75;;;24.90;95.30;;;;;;4929541;29;19969;-73
2022/08/12 07:58:39;;;;;;;7.60;6.80;;;25.30;99.90;;;;;;4913514;29;20126;-73
2022/08/12 08:01:09;;;;;;;9.35;7.38;;;25.40;96.50;;;;;;4913401;29;20048;-71
2022/08/12 08:04:54;;;;;;;13.18;7.95;;;25.60;93.10;;;;;;4931335;29;20603;-71
2022/08/12 08:06:25;;;;;;;10.15;8.05;;;25.90;92.50;;;;;;4915364;29;20055;-71
2022/08/12 08:08:50;;;;;;;9.15;7.32;;;26.10;91.10;;;;;;4930354;29;20046;-71
2022/08/12 08:14:03;;;;;;;8.32;7.50;;;26.40;85.30;;;;;;4924467;29;20074;-71
2022/08/12 08:16:28;;;;;;;9.43;7.50;;;26.40;80.60;;;;;;4913502;29;20048;-71
2022/08/12 08:18:54;;;;;;;8.57;7.00;;;26.50;80.10;;;;;;4932199;28;20055;-71
2022/08/12 08:21:20;;;;;;;10.68;6.78;;;26.60;80.70;;;;;;4949930;29;20126;-71
2022/08/12 08:26:31;;;;;;;7.72;6.72;;;27.00;75.90;;;;;;4913410;29;20066;-71
2022/08/12 08:28:58;;;;;;;7.30;6.40;;;27.10;73.90;;;;;;4912749;29;20501;-71
2022/08/12 08:31:24;;;;;;;14.90;6.87;;;27.30;73.50;;;;;;4913181;29;20295;-71
2022/08/12 08:33:52;;;;;;;8.73;7.45;;;27.50;70.50;;;;;;4927066;29;20773;-71
2022/08/12 08:36:19;;;;;;;18.08;8.05;;;27.50;70.50;;;;;;4911726;29;20161;-71
2022/08/12 08:38:45;;;;;;;7.47;6.78;;;27.70;69.30;;;;;;4906537;29;20052;-71
2022/08/12 08:43:59;;;;;;;7.75;6.95;;;27.80;68.00;;;;;;4935862;29;20521;-71
2022/08/12 08:46:26;;;;;;;7.13;6.43;;;27.80;67.90;;;;;;4913860;29;20071;-71
2022/08/12 08:48:52;;;;;;;8.02;6.88;;;28.10;67.90;;;;;;4914811;29;20412;-71
2022/08/12 08:51:18;;;;;;;10.47;6.13;;;28.30;66.90;;;;;;4931083;29;20048;-71
2022/08/12 08:53:43;;;;;;;15.13;6.55;;;28.40;65.80;;;;;;4921768;29;20039;-70
2022/08/12 08:56:10;;;;;;;6.63;6.03;;;28.60;64.60;;;;;;4933884;29;20055;-71
2022/08/12 08:58:39;;;;;;;10.85;6.80;;;28.80;63.50;;;;;;4922296;29;20043;-71
2022/08/12 09:01:05;;;;;;;9.77;6.47;;;29.10;63.40;;;;;;4933123;29;20044;-71
2022/08/12 09:03:32;;;;;;;7.40;6.70;;;29.10;62.60;;;;;;4929274;29;20047;-72
2022/08/12 09:06:00;;;;;;;6.15;5.70;;;28.90;61.40;;;;;;4914310;29;20068;-71
2022/08/12 09:08:26;;;;;;;7.75;6.15;;;29.00;61.40;;;;;;4929607;29;20052;-72
2022/08/12 09:10:57;;;;;;;8.98;6.80;;;29.20;60.00;;;;;;4930720;29;20058;-71
2022/08/12 09:13:33;;;;;;;9.55;7.25;;;29.40;59.20;;;;;;4896550;29;20044;-70
2022/08/12 09:16:01;;;;;;;7.53;6.40;;;29.40;59.40;;;;;;4934957;29;20075;-70
2022/08/12 09:18:27;;;;;;;7.45;6.53;;;29.70;59.20;;;;;;4931891;29;20055;-70
2022/08/12 09:20:52;;;;;;;7.93;6.93;;;29.70;57.50;;;;;;4917548;29;20051;-70
2022/08/12 09:23:18;;;;;;;6.88;6.28;;;29.70;56.50;;;;;;4933456;29;20091;-70
2022/08/12 09:25:45;;;;;;;10.82;7.38;;;29.70;56.40;;;;;;4928235;29;20043;-73
2022/08/12 09:28:11;;;;;;;7.00;6.50;;;29.60;55.20;;;;;;4912206;29;20051;-72
2022/08/12 09:30:38;;;;;;;6.50;5.90;;;29.40;55.10;;;;;;4928900;29;20051;-72
2022/08/12 09:33:05;;;;;;;11.75;6.93;;;29.60;55.40;;;;;;4937568;29;20051;-73
2022/08/12 09:35:50;;;;;;;12.15;6.47;;;29.70;54.90;;;;;;4934138;29;20056;-72
2022/08/12 09:38:16;;;;;;;7.55;6.80;;;29.70;55.10;;;;;;4931792;29;20046;-72
2022/08/12 09:40:43;;;;;;;9.15;6.35;;;29.80;54.80;;;;;;4942483;29;20046;-72
2022/08/12 09:45:53;;;;;;;8.27;7.53;;;29.90;52.70;;;;;;4934245;29;20051;-71
2022/08/12 09:48:19;;;;;;;9.10;7.43;;;30.00;52.60;;;;;;4933713;29;20071;-71
2022/08/12 09:50:50;;;;;;;6.63;6.13;;;29.90;52.70;;;;;;4935466;29;20055;-71
2022/08/12 09:53:23;;;;;;;6.72;6.32;;;30.10;51.80;;;;;;4946061;29;20043;-71
2022/08/12 09:55:51;;;;;;;9.80;7.05;;;30.20;52.20;;;;;;4930672;29;20449;-72
2022/08/12 09:58:18;;;;;;;8.80;7.72;;;30.40;49.50;;;;;;4909007;29;20143;-69
2022/08/12 10:00:46;;;;;;;12.98;6.80;;;30.30;49.00;;;;;;4916817;29;20055;-71
2022/08/12 10:03:15;;;;;;;7.68;7.07;;;30.30;50.00;;;;;;4935653;29;20054;-71
2022/08/12 10:05:46;;;;;;;7.43;6.72;;;30.40;49.20;;;;;;4921003;29;20493;-72
2022/08/12 10:08:16;;;;;;;7.60;6.70;;;30.50;48.20;;;;;;4932356;29;20051;-72
2022/08/12 10:13:43;;;;;;;11.93;6.78;;;30.40;47.80;;;;;;4931910;29;20090;-72
2022/08/12 10:16:18;;;;;;;8.43;7.65;;;30.40;46.30;;;;;;4935841;29;20074;-73
2022/08/12 10:18:49;;;;;;;7.88;7.25;;;30.50;45.30;;;;;;4920612;29;20645;-73
2022/08/12 10:21:17;;;;;;;7.90;6.95;;;30.60;46.10;;;;;;4933631;29;20052;-72
2022/08/12 10:23:47;;;;;;;8.90;6.47;;;30.70;46.20;;;;;;4934627;29;20523;-72
2022/08/12 10:31:44;;;;;;;7.07;6.47;;;30.90;44.40;;;;;;4929429;29;20060;-74
2022/08/12 10:34:12;;;;;;;9.07;6.57;;;30.90;44.10;;;;;;4916395;29;20055;-72
2022/08/12 10:36:39;;;;;;;9.02;6.47;;;31.00;44.50;;;;;;4914776;29;20114;-74
2022/08/12 10:39:12;;;;;;;7.50;6.82;;;30.80;44.80;;;;;;4916330;29;20528;-74
2022/08/12 10:44:23;;;;;;;7.07;6.43;;;31.20;44.90;;;;;;4914174;29;20052;-74
2022/08/12 10:46:51;;;;;;;7.55;6.85;;;31.20;43.80;;;;;;4917142;29;20425;-74
2022/08/12 10:49:18;;;;;;;6.10;5.60;;;31.10;43.20;;;;;;4914999;29;20050;-74
2022/08/12 10:51:44;;;;;;;6.97;6.32;;;31.20;43.80;;;;;;4899439;29;20230;-74
2022/08/12 10:54:12;;;;;;;9.15;6.78;;;31.20;43.40;;;;;;4913388;29;20520;-73
2022/08/12 10:56:39;;;;;;;8.02;6.30;;;31.20;43.30;;;;;;4914454;29;20046;-72
2022/08/12 10:59:05;;;;;;;7.53;6.75;;;31.40;43.30;;;;;;4908903;29;20078;-74
2022/08/12 11:01:32;;;;;;;7.07;6.50;;;31.30;43.20;;;;;;4932077;29;20031;-69
2022/08/12 11:04:01;;;;;;;7.55;6.63;;;31.30;42.50;;;;;;4925272;29;20051;-72
2022/08/12 11:06:27;;;;;;;7.45;6.03;;;31.30;42.60;;;;;;4928257;29;20048;-73
2022/08/12 11:08:55;;;;;;;6.03;5.15;;;31.40;41.30;;;;;;4927606;29;20119;-72
2022/08/12 11:11:21;;;;;;;9.18;6.03;;;31.50;41.00;;;;;;4931633;29;20047;-72
2022/08/12 11:13:47;;;;;;;7.25;6.65;;;31.70;41.20;;;;;;4930994;29;20064;-72
2022/08/12 11:16:16;;;;;;;9.20;6.35;;;31.80;41.00;;;;;;4913544;29;20604;-72
2022/08/12 11:18:42;;;;;;;8.50;6.20;;;32.00;41.00;;;;;;4930627;29;20058;-71
2022/08/12 11:21:08;;;;;;;23.33;7.53;;;31.90;40.50;;;;;;4914116;29;20051;-70
2022/08/12 11:23:34;;;;;;;6.38;5.88;;;31.90;40.60;;;;;;4913209;29;20406;-69
2022/08/12 11:26:00;;;;;;;9.70;6.85;;;32.00;40.30;;;;;;4928437;29;20059;-71
2022/08/12 11:28:26;;;;;;;6.78;6.28;;;31.80;40.20;;;;;;4941785;29;20086;-71
2022/08/12 11:30:52;;;;;;;6.93;6.33;;;31.90;40.30;;;;;;4914318;29;20442;-70
2022/08/12 11:33:17;;;;;;;13.82;6.82;;;31.70;40.30;;;;;;4908190;29;20095;-73
2022/08/12 11:35:43;;;;;;;9.63;6.82;;;31.80;40.60;;;;;;4916564;29;20099;-73
2022/08/12 11:38:10;;;;;;;7.95;6.40;;;31.90;41.00;;;;;;4913593;29;20087;-75
2022/08/12 11:40:37;;;;;;;7.15;5.93;;;32.00;41.10;;;;;;4911671;29;20221;-74
2022/08/12 11:43:02;;;;;;;7.07;6.47;;;31.90;40.90;;;;;;4913217;29;20051;-74
2022/08/12 11:45:29;;;;;;;7.38;6.15;;;32.10;41.20;;;;;;4931074;29;20398;-73
2022/08/12 11:47:58;;;;;;;9.00;6.53;;;32.30;40.20;;;;;;4913043;29;20040;-73
2022/08/12 11:50:24;;;;;;;8.70;6.93;;;32.30;40.10;;;;;;4913267;29;20090;-74
2022/08/12 11:52:50;;;;;;;8.43;6.70;;;32.40;39.90;;;;;;4912507;29;20056;-73
2022/08/12 11:55:16;;;;;;;10.35;7.00;;;32.40;39.80;;;;;;4918668;29;20492;-73
2022/08/12 11:57:54;;;;;;;7.57;6.47;;;32.30;40.10;;;;;;4915444;29;20051;-73
2022/08/12 12:00:21;;;;;;;7.00;6.28;;;32.20;39.20;;;;;;4913366;29;20079;-74
2022/08/12 12:02:47;;;;;;;10.27;6.50;;;32.00;40.10;;;;;;4913832;29;20130;-73
2022/08/12 12:05:17;;;;;;;14.67;7.23;;;32.00;40.30;;;;;;4912918;29;20060;-74
2022/08/12 12:07:44;;;;;;;11.00;6.85;;;32.20;40.10;;;;;;4930556;29;20044;-72
2022/08/12 12:10:16;;;;;;;7.68;6.97;;;32.10;40.00;;;;;;4911305;29;20557;-73
2022/08/12 12:12:42;;;;;;;11.48;7.05;;;32.30;39.80;;;;;;4919820;29;20058;-74
2022/08/12 12:15:09;;;;;;;7.60;6.95;;;32.40;40.20;;;;;;4913443;29;20048;-75
2022/08/12 12:17:40;;;;;;;9.93;7.72;;;32.30;40.30;;;;;;4929648;29;20055;-74
2022/08/12 12:20:08;;;;;;;7.47;6.88;;;32.10;39.80;;;;;;4909278;29;20055;-72
2022/08/12 12:22:39;;;;;;;8.23;7.53;;;32.30;41.00;;;;;;4905266;29;20051;-73
2022/08/12 12:25:07;;;;;;;8.07;6.72;;;32.30;40.40;;;;;;4912638;29;20047;-74
2022/08/12 12:27:50;;;;;;;12.55;7.60;;;32.40;40.80;;;;;;4911765;29;20062;-74
2022/08/12 12:30:16;;;;;;;7.40;6.75;;;32.50;40.10;;;;;;4928352;29;20075;-72
2022/08/12 12:32:42;;;;;;;7.93;7.13;;;32.40;39.90;;;;;;4910754;29;20426;-72
2022/08/12 12:35:08;;;;;;;10.77;7.90;;;32.50;40.10;;;;;;4928105;29;20035;-72
2022/08/12 12:37:34;;;;;;;7.65;6.95;;;32.20;39.90;;;;;;4927140;29;20055;-74
2022/08/12 12:39:59;;;;;;;9.40;7.40;;;32.10;40.40;;;;;;4925673;29;20090;-74
2022/08/12 12:42:25;;;;;;;9.07;8.13;;;32.20;40.60;;;;;;4904966;29;20054;-73
2022/08/12 12:44:51;;;;;;;8.43;7.70;;;32.30;40.90;;;;;;4905386;29;20047;-73
2022/08/12 12:47:16;;;;;;;7.50;6.90;;;32.30;40.40;;;;;;4907415;29;20130;-73
2022/08/12 12:49:42;;;;;;;8.98;7.22;;;32.40;40.00;;;;;;4908491;29;20485;-72
2022/08/12 12:52:08;;;;;;;8.07;7.47;;;32.50;40.30;;;;;;4898810;29;20127;-74
2022/08/12 12:54:33;;;;;;;8.20;7.10;;;32.60;40.40;;;;;;4907433;29;20043;-73
2022/08/12 12:56:59;;;;;;;7.82;6.88;;;32.70;41.30;;;;;;4925267;29;20075;-73
2022/08/12 12:59:27;;;;;;;9.75;7.43;;;32.50;40.60;;;;;;4909400;29;20058;-73
2022/08/12 13:01:54;;;;;;;8.68;6.93;;;32.60;40.70;;;;;;4909792;29;20886;-72
2022/08/12 13:04:19;;;;;;;10.13;7.68;;;32.50;40.30;;;;;;4923053;29;20051;-73
2022/08/12 13:06:50;;;;;;;8.50;7.68;;;32.60;39.80;;;;;;4923523;29;20052;-74
2022/08/12 13:09:18;;;;;;;8.15;7.35;;;32.50;39.30;;;;;;4925412;29;20088;-73
2022/08/12 13:11:44;;;;;;;9.63;7.50;;;32.60;39.60;;;;;;4930910;29;20159;-74
2022/08/12 13:14:12;;;;;;;8.68;7.78;;;32.80;40.20;;;;;;4911410;29;20469;-74
2022/08/12 13:16:42;;;;;;;7.97;7.30;;;32.70;39.80;;;;;;4925896;29;20059;-74
2022/08/12 13:19:08;;;;;;;8.32;7.65;;;32.80;39.90;;;;;;4926631;29;20080;-74
2022/08/12 13:21:34;;;;;;;8.53;7.83;;;32.80;39.80;;;;;;4928936;29;20044;-73
2022/08/12 13:24:02;;;;;;;19.85;6.88;;;32.80;40.20;;;;;;4927955;29;20318;-74
2022/08/12 13:26:32;;;;;;;8.10;7.25;;;32.70;40.20;;;;;;4928182;29;20114;-73
2022/08/12 13:28:59;;;;;;;8.02;7.30;;;32.40;39.50;;;;;;4929789;29;20070;-73
2022/08/12 13:31:24;;;;;;;7.50;6.85;;;32.10;39.60;;;;;;4927847;29;20056;-73
2022/08/12 13:33:50;;;;;;;9.73;8.15;;;32.20;39.80;;;;;;4928372;29;20066;-73
2022/08/12 13:36:19;;;;;;;12.35;7.90;;;32.20;39.90;;;;;;4928395;29;20445;-73
2022/08/12 13:38:50;;;;;;;10.05;8.90;;;32.10;40.40;;;;;;4925269;29;20113;-71
2022/08/12 13:41:31;;;;;;;8.38;7.03;;;32.10;40.50;;;;;;4926379;29;20036;-72
2022/08/12 13:44:02;;;;;;;9.43;7.72;;;32.20;40.70;;;;;;4927269;29;20048;-70
2022/08/12 13:46:28;;;;;;;9.50;8.48;;;32.40;41.30;;;;;;4933794;29;20047;-74
2022/08/12 13:48:55;;;;;;;9.18;7.18;;;32.60;40.80;;;;;;4910647;29;20459;-72
2022/08/12 13:51:22;;;;;;;13.68;8.40;;;32.80;41.20;;;;;;4929543;29;20048;-73
2022/08/12 13:53:48;;;;;;;13.82;7.72;;;33.00;40.10;;;;;;4911477;29;20036;-74
2022/08/12 13:56:13;;;;;;;11.52;8.73;;;33.10;39.90;;;;;;4929733;29;20453;-72
2022/08/12 13:58:47;;;;;;;9.70;8.82;;;33.10;39.80;;;;;;4929569;29;20040;-74
2022/08/12 14:01:16;;;;;;;9.73;8.25;;;33.20;40.00;;;;;;4913746;29;20047;-74
2022/08/12 14:03:42;;;;;;;10.93;8.27;;;33.20;40.10;;;;;;4920644;29;20126;-73
2022/08/12 14:06:08;;;;;;;11.55;8.05;;;33.30;40.20;;;;;;4927742;29;20055;-73
2022/08/12 14:08:33;;;;;;;14.27;7.95;;;33.20;39.80;;;;;;4928260;29;20437;-76
2022/08/12 14:10:59;;;;;;;10.38;7.90;;;33.20;39.40;;;;;;4930139;29;20059;-73
2022/08/12 14:13:29;;;;;;;8.88;8.05;;;33.20;39.50;;;;;;4930202;29;20040;-74
2022/08/12 14:16:01;;;;;;;11.25;8.02;;;33.30;39.30;;;;;;4927901;29;20123;-73
2022/08/12 14:18:31;;;;;;;9.38;7.95;;;33.30;39.40;;;;;;4927193;29;20044;-73
2022/08/12 14:21:01;;;;;;;9.90;7.05;;;33.40;39.70;;;;;;4929287;29;20051;-73
2022/08/12 14:23:29;;;;;;;9.07;8.35;;;33.30;39.70;;;;;;4912262;29;20694;-73
2022/08/12 14:25:57;;;;;;;9.43;8.15;;;33.20;40.10;;;;;;4929515;29;20051;-73
2022/08/12 14:28:24;;;;;;;11.68;8.18;;;33.10;40.00;;;;;;4926265;29;20055;-73
2022/08/12 14:30:59;;;;;;;18.00;7.88;;;33.30;39.90;;;;;;4913103;29;20075;-72
2022/08/12 14:33:37;;;;;;;17.77;7.65;;;33.20;39.50;;;;;;4911542;29;20493;-73
2022/08/12 14:36:07;;;;;;;10.50;7.53;;;33.00;39.10;;;;;;4929976;29;20093;-73
2022/08/12 14:38:40;;;;;;;11.15;8.63;;;33.00;40.00;;;;;;4926465;29;20111;-72